sensor_id;sensor_type;location;lat;lon;timestamp;temperature;humidity
12769;DHT22;6448;48.916;8.990;2024-02-21T00:00:53;13.00;54.20
12769;DHT22;6448;48.916;8.990;2024-02-21T00:01:53;13.00;54.20
12769;DHT22;6448;48.916;8.990;2024-02-21T00:02:55;13.00;54.20
12769;DHT22;6448;48.916;8.990;2024-02-21T00:03:58;13.00;54.20
12769;DHT22;6448;48.916;8.990;2024-02-21T00:05:00;13.00;54.20
12769;DHT22;6448;48.916;8.990;2024-02-21T00:06:00;13.00;54.20
12769;DHT22;6448;48.916;8.990;2024-02-21T00:07:03;13.00;54.20
12769;DHT22;6448;48.916;8.990;2024-02-21T00:08:05;13.00;54.20
12769;DHT22;6448;48.916;8.990;2024-02-21T00:09:06;13.00;54.20
12769;DHT22;6448;48.916;8.990;2024-02-21T00:10:10;13.00;54.20
12769;DHT22;6448;48.916;8.990;2024-02-21T00:11:10;13.00;54.20
12769;DHT22;6448;48.916;8.990;2024-02-21T00:12:12;13.00;54.20
12769;DHT22;6448;48.916;8.990;2024-02-21T00:13:14;13.00;54.20
12769;DHT22;6448;48.916;8.990;2024-02-21T00:14:16;13.00;54.30
12769;DHT22;6448;48.916;8.990;2024-02-21T00:15:16;13.00;54.30
12769;DHT22;6448;48.916;8.990;2024-02-21T00:16:18;13.00;54.20
12769;DHT22;6448;48.916;8.990;2024-02-21T00:17:19;13.10;54.30
12769;DHT22;6448;48.916;8.990;2024-02-21T00:18:21;13.00;54.20
12769;DHT22;6448;48.916;8.990;2024-02-21T00:19:21;13.00;54.30
12769;DHT22;6448;48.916;8.990;2024-02-21T00:20:22;13.00;54.30
12769;DHT22;6448;48.916;8.990;2024-02-21T00:21:26;13.00;54.30
12769;DHT22;6448;48.916;8.990;2024-02-21T00:22:26;13.00;54.30
12769;DHT22;6448;48.916;8.990;2024-02-21T00:23:30;13.00;54.30
12769;DHT22;6448;48.916;8.990;2024-02-21T00:24:31;13.00;54.30
12769;DHT22;6448;48.916;8.990;2024-02-21T00:25:33;13.00;54.20
12769;DHT22;6448;48.916;8.990;2024-02-21T00:26:34;12.90;54.20
12769;DHT22;6448;48.916;8.990;2024-02-21T00:27:35;12.90;54.20
12769;DHT22;6448;48.916;8.990;2024-02-21T00:28:36;12.90;54.10
12769;DHT22;6448;48.916;8.990;2024-02-21T00:29:37;12.90;54.10
12769;DHT22;6448;48.916;8.990;2024-02-21T00:30:39;12.80;54.10
12769;DHT22;6448;48.916;8.990;2024-02-21T00:31:39;12.80;54.20
12769;DHT22;6448;48.916;8.990;2024-02-21T00:32:42;12.80;54.20
12769;DHT22;6448;48.916;8.990;2024-02-21T00:33:42;12.80;54.20
12769;DHT22;6448;48.916;8.990;2024-02-21T00:34:44;12.70;54.20
12769;DHT22;6448;48.916;8.990;2024-02-21T00:35:45;12.70;54.20
12769;DHT22;6448;48.916;8.990;2024-02-21T00:36:47;12.70;54.20
12769;DHT22;6448;48.916;8.990;2024-02-21T00:37:48;12.70;54.30
12769;DHT22;6448;48.916;8.990;2024-02-21T00:38:51;12.70;54.40
12769;DHT22;6448;48.916;8.990;2024-02-21T00:39:53;12.60;54.40
12769;DHT22;6448;48.916;8.990;2024-02-21T00:40:55;12.60;54.50
12769;DHT22;6448;48.916;8.990;2024-02-21T00:41:56;12.60;54.60
12769;DHT22;6448;48.916;8.990;2024-02-21T00:42:57;12.60;54.50
12769;DHT22;6448;48.916;8.990;2024-02-21T00:43:58;12.60;54.60
12769;DHT22;6448;48.916;8.990;2024-02-21T00:45:00;12.50;54.60
12769;DHT22;6448;48.916;8.990;2024-02-21T00:46:01;12.60;54.80
12769;DHT22;6448;48.916;8.990;2024-02-21T00:47:02;12.60;54.80
12769;DHT22;6448;48.916;8.990;2024-02-21T00:48:04;12.50;54.80
12769;DHT22;6448;48.916;8.990;2024-02-21T00:49:06;12.50;54.80
12769;DHT22;6448;48.916;8.990;2024-02-21T00:50:08;12.60;55.00
12769;DHT22;6448;48.916;8.990;2024-02-21T00:51:10;12.60;54.90
12769;DHT22;6448;48.916;8.990;2024-02-21T00:52:10;12.60;55.00
12769;DHT22;6448;48.916;8.990;2024-02-21T00:53:12;12.50;54.90
12769;DHT22;6448;48.916;8.990;2024-02-21T00:54:14;12.50;54.90
12769;DHT22;6448;48.916;8.990;2024-02-21T00:55:16;12.60;54.90
12769;DHT22;6448;48.916;8.990;2024-02-21T00:56:17;12.80;55.00
12769;DHT22;6448;48.916;8.990;2024-02-21T00:57:19;12.60;55.50
12769;DHT22;6448;48.916;8.990;2024-02-21T00:58:19;12.50;54.90
12769;DHT22;6448;48.916;8.990;2024-02-21T00:59:21;12.50;54.90
12769;DHT22;6448;48.916;8.990;2024-02-21T01:00:22;12.50;54.90
12769;DHT22;6448;48.916;8.990;2024-02-21T01:01:25;12.50;54.90
12769;DHT22;6448;48.916;8.990;2024-02-21T01:02:26;12.50;54.90
12769;DHT22;6448;48.916;8.990;2024-02-21T01:03:27;12.50;55.00
12769;DHT22;6448;48.916;8.990;2024-02-21T01:04:28;12.50;55.00
12769;DHT22;6448;48.916;8.990;2024-02-21T01:05:30;12.50;55.00
12769;DHT22;6448;48.916;8.990;2024-02-21T01:06:31;12.50;55.00
12769;DHT22;6448;48.916;8.990;2024-02-21T01:07:32;12.50;55.00
12769;DHT22;6448;48.916;8.990;2024-02-21T01:08:33;12.50;55.00
12769;DHT22;6448;48.916;8.990;2024-02-21T01:09:36;12.50;55.00
12769;DHT22;6448;48.916;8.990;2024-02-21T01:10:37;12.60;55.00
12769;DHT22;6448;48.916;8.990;2024-02-21T01:11:39;12.60;55.00
12769;DHT22;6448;48.916;8.990;2024-02-21T01:12:40;12.60;55.00
12769;DHT22;6448;48.916;8.990;2024-02-21T01:13:42;12.60;55.00
12769;DHT22;6448;48.916;8.990;2024-02-21T01:14:43;12.60;55.00
12769;DHT22;6448;48.916;8.990;2024-02-21T01:15:46;12.60;55.00
12769;DHT22;6448;48.916;8.990;2024-02-21T01:16:47;12.60;54.90
12769;DHT22;6448;48.916;8.990;2024-02-21T01:17:48;12.60;54.90
12769;DHT22;6448;48.916;8.990;2024-02-21T01:18:51;12.60;54.90
12769;DHT22;6448;48.916;8.990;2024-02-21T01:19:53;12.60;54.90
12769;DHT22;6448;48.916;8.990;2024-02-21T01:20:53;12.70;55.00
12769;DHT22;6448;48.916;8.990;2024-02-21T01:21:55;12.60;54.90
12769;DHT22;6448;48.916;8.990;2024-02-21T01:22:56;12.60;55.00
12769;DHT22;6448;48.916;8.990;2024-02-21T01:23:58;12.60;54.90
12769;DHT22;6448;48.916;8.990;2024-02-21T01:25:00;12.60;54.90
12769;DHT22;6448;48.916;8.990;2024-02-21T01:26:02;12.60;55.00
12769;DHT22;6448;48.916;8.990;2024-02-21T01:27:03;12.60;55.10
12769;DHT22;6448;48.916;8.990;2024-02-21T01:28:05;12.60;55.00
12769;DHT22;6448;48.916;8.990;2024-02-21T01:29:06;12.60;55.00
12769;DHT22;6448;48.916;8.990;2024-02-21T01:30:08;12.90;55.20
12769;DHT22;6448;48.916;8.990;2024-02-21T01:31:11;12.60;55.10
12769;DHT22;6448;48.916;8.990;2024-02-21T01:32:13;12.60;55.10
12769;DHT22;6448;48.916;8.990;2024-02-21T01:33:14;12.60;55.00
12769;DHT22;6448;48.916;8.990;2024-02-21T01:34:16;12.60;55.00
12769;DHT22;6448;48.916;8.990;2024-02-21T01:35:17;12.60;55.00
12769;DHT22;6448;48.916;8.990;2024-02-21T01:36:19;12.60;55.10
12769;DHT22;6448;48.916;8.990;2024-02-21T01:37:20;12.60;55.10
12769;DHT22;6448;48.916;8.990;2024-02-21T01:38:22;12.60;55.10
12769;DHT22;6448;48.916;8.990;2024-02-21T01:39:22;12.60;55.20
12769;DHT22;6448;48.916;8.990;2024-02-21T01:40:25;12.60;55.20
12769;DHT22;6448;48.916;8.990;2024-02-21T01:41:26;12.60;55.20
12769;DHT22;6448;48.916;8.990;2024-02-21T01:42:28;12.60;55.30
12769;DHT22;6448;48.916;8.990;2024-02-21T01:43:29;12.60;55.30
12769;DHT22;6448;48.916;8.990;2024-02-21T01:44:31;12.60;55.30
12769;DHT22;6448;48.916;8.990;2024-02-21T01:45:32;12.60;55.50
12769;DHT22;6448;48.916;8.990;2024-02-21T01:46:34;12.60;55.30
12769;DHT22;6448;48.916;8.990;2024-02-21T01:47:35;12.60;55.30
12769;DHT22;6448;48.916;8.990;2024-02-21T01:48:38;12.60;55.30
12769;DHT22;6448;48.916;8.990;2024-02-21T01:49:40;12.60;55.30
12769;DHT22;6448;48.916;8.990;2024-02-21T01:50:42;12.60;55.30
12769;DHT22;6448;48.916;8.990;2024-02-21T01:51:42;12.60;55.20
12769;DHT22;6448;48.916;8.990;2024-02-21T01:52:46;12.60;55.10
12769;DHT22;6448;48.916;8.990;2024-02-21T01:53:48;12.60;55.20
12769;DHT22;6448;48.916;8.990;2024-02-21T01:54:51;12.60;55.20
12769;DHT22;6448;48.916;8.990;2024-02-21T01:55:53;12.50;55.20
12769;DHT22;6448;48.916;8.990;2024-02-21T01:56:56;12.50;55.20
12769;DHT22;6448;48.916;8.990;2024-02-21T01:57:57;12.50;55.30
12769;DHT22;6448;48.916;8.990;2024-02-21T01:58:59;12.50;55.30
12769;DHT22;6448;48.916;8.990;2024-02-21T02:00:00;12.50;55.30
12769;DHT22;6448;48.916;8.990;2024-02-21T02:01:02;12.50;55.40
12769;DHT22;6448;48.916;8.990;2024-02-21T02:02:03;12.50;55.50
12769;DHT22;6448;48.916;8.990;2024-02-21T02:03:04;12.50;55.50
12769;DHT22;6448;48.916;8.990;2024-02-21T02:04:07;12.50;56.00
12769;DHT22;6448;48.916;8.990;2024-02-21T02:05:08;12.50;55.40
12769;DHT22;6448;48.916;8.990;2024-02-21T02:06:10;12.60;55.50
12769;DHT22;6448;48.916;8.990;2024-02-21T02:07:11;12.50;55.40
12769;DHT22;6448;48.916;8.990;2024-02-21T02:08:13;12.50;55.40
12769;DHT22;6448;48.916;8.990;2024-02-21T02:09:14;12.60;55.50
12769;DHT22;6448;48.916;8.990;2024-02-21T02:10:16;12.60;55.50
12769;DHT22;6448;48.916;8.990;2024-02-21T02:11:18;12.60;55.50
12769;DHT22;6448;48.916;8.990;2024-02-21T02:12:20;12.50;55.40
12769;DHT22;6448;48.916;8.990;2024-02-21T02:13:21;12.60;55.50
12769;DHT22;6448;48.916;8.990;2024-02-21T02:14:22;12.50;55.50
12769;DHT22;6448;48.916;8.990;2024-02-21T02:15:24;12.60;55.60
12769;DHT22;6448;48.916;8.990;2024-02-21T02:16:25;12.60;55.70
12769;DHT22;6448;48.916;8.990;2024-02-21T02:17:26;12.60;55.60
12769;DHT22;6448;48.916;8.990;2024-02-21T02:18:27;12.60;55.60
12769;DHT22;6448;48.916;8.990;2024-02-21T02:19:28;12.60;55.60
12769;DHT22;6448;48.916;8.990;2024-02-21T02:20:30;12.60;55.60
12769;DHT22;6448;48.916;8.990;2024-02-21T02:21:34;12.60;55.60
12769;DHT22;6448;48.916;8.990;2024-02-21T02:22:42;12.60;55.50
12769;DHT22;6448;48.916;8.990;2024-02-21T02:23:45;12.60;55.60
12769;DHT22;6448;48.916;8.990;2024-02-21T02:24:46;12.60;55.60
12769;DHT22;6448;48.916;8.990;2024-02-21T02:25:48;12.60;55.60
12769;DHT22;6448;48.916;8.990;2024-02-21T02:26:49;12.60;55.60
12769;DHT22;6448;48.916;8.990;2024-02-21T02:27:51;12.60;55.60
12769;DHT22;6448;48.916;8.990;2024-02-21T02:28:52;12.60;55.70
12769;DHT22;6448;48.916;8.990;2024-02-21T02:29:54;12.70;55.90
12769;DHT22;6448;48.916;8.990;2024-02-21T02:30:55;12.60;55.90
12769;DHT22;6448;48.916;8.990;2024-02-21T02:31:57;12.60;56.00
12769;DHT22;6448;48.916;8.990;2024-02-21T02:32:57;12.60;56.00
12769;DHT22;6448;48.916;8.990;2024-02-21T02:33:59;12.60;56.00
12769;DHT22;6448;48.916;8.990;2024-02-21T02:35:00;12.60;56.00
12769;DHT22;6448;48.916;8.990;2024-02-21T02:36:02;12.60;56.00
12769;DHT22;6448;48.916;8.990;2024-02-21T02:37:03;12.60;56.00
12769;DHT22;6448;48.916;8.990;2024-02-21T02:38:05;12.60;56.00
12769;DHT22;6448;48.916;8.990;2024-02-21T02:39:07;12.60;56.00
12769;DHT22;6448;48.916;8.990;2024-02-21T02:40:09;12.60;56.00
12769;DHT22;6448;48.916;8.990;2024-02-21T02:41:10;12.60;56.00
12769;DHT22;6448;48.916;8.990;2024-02-21T02:42:12;12.60;56.00
12769;DHT22;6448;48.916;8.990;2024-02-21T02:43:12;12.60;55.90
12769;DHT22;6448;48.916;8.990;2024-02-21T02:44:14;12.60;55.90
12769;DHT22;6448;48.916;8.990;2024-02-21T02:45:15;12.60;55.90
12769;DHT22;6448;48.916;8.990;2024-02-21T02:46:17;12.70;56.00
12769;DHT22;6448;48.916;8.990;2024-02-21T02:47:17;12.60;55.90
12769;DHT22;6448;48.916;8.990;2024-02-21T02:48:20;12.60;55.90
12769;DHT22;6448;48.916;8.990;2024-02-21T02:49:21;12.70;56.00
12769;DHT22;6448;48.916;8.990;2024-02-21T02:50:22;12.60;56.00
12769;DHT22;6448;48.916;8.990;2024-02-21T02:51:23;12.60;56.00
12769;DHT22;6448;48.916;8.990;2024-02-21T02:52:25;12.60;56.00
12769;DHT22;6448;48.916;8.990;2024-02-21T02:53:26;12.80;56.20
12769;DHT22;6448;48.916;8.990;2024-02-21T02:54:29;12.70;56.30
12769;DHT22;6448;48.916;8.990;2024-02-21T02:55:30;12.70;56.30
12769;DHT22;6448;48.916;8.990;2024-02-21T02:56:31;12.70;56.30
12769;DHT22;6448;48.916;8.990;2024-02-21T02:57:32;12.60;56.20
12769;DHT22;6448;48.916;8.990;2024-02-21T02:58:34;12.70;56.40
12769;DHT22;6448;48.916;8.990;2024-02-21T02:59:35;12.70;56.40
12769;DHT22;6448;48.916;8.990;2024-02-21T03:00:37;12.70;56.40
12769;DHT22;6448;48.916;8.990;2024-02-21T03:01:39;12.70;56.40
12769;DHT22;6448;48.916;8.990;2024-02-21T03:02:43;12.70;56.40
12769;DHT22;6448;48.916;8.990;2024-02-21T03:03:45;12.80;56.40
12769;DHT22;6448;48.916;8.990;2024-02-21T03:04:47;12.80;56.40
12769;DHT22;6448;48.916;8.990;2024-02-21T03:05:48;12.60;56.30
12769;DHT22;6448;48.916;8.990;2024-02-21T03:06:50;12.80;56.40
12769;DHT22;6448;48.916;8.990;2024-02-21T03:07:51;12.80;56.40
12769;DHT22;6448;48.916;8.990;2024-02-21T03:08:53;12.80;56.50
12769;DHT22;6448;48.916;8.990;2024-02-21T03:09:56;12.80;56.50
12769;DHT22;6448;48.916;8.990;2024-02-21T03:10:58;12.80;56.50
12769;DHT22;6448;48.916;8.990;2024-02-21T03:12:00;12.80;56.50
12769;DHT22;6448;48.916;8.990;2024-02-21T03:13:03;12.80;56.50
12769;DHT22;6448;48.916;8.990;2024-02-21T03:14:05;12.80;56.50
12769;DHT22;6448;48.916;8.990;2024-02-21T03:15:07;12.80;56.50
12769;DHT22;6448;48.916;8.990;2024-02-21T03:16:08;12.80;56.50
12769;DHT22;6448;48.916;8.990;2024-02-21T03:17:09;12.80;56.50
12769;DHT22;6448;48.916;8.990;2024-02-21T03:18:10;12.80;56.50
12769;DHT22;6448;48.916;8.990;2024-02-21T03:19:12;12.80;56.50
12769;DHT22;6448;48.916;8.990;2024-02-21T03:20:13;12.80;56.60
12769;DHT22;6448;48.916;8.990;2024-02-21T03:21:14;13.00;56.60
12769;DHT22;6448;48.916;8.990;2024-02-21T03:22:15;12.80;56.50
12769;DHT22;6448;48.916;8.990;2024-02-21T03:23:16;12.80;56.50
12769;DHT22;6448;48.916;8.990;2024-02-21T03:24:18;12.80;56.50
12769;DHT22;6448;48.916;8.990;2024-02-21T03:25:21;12.80;56.50
12769;DHT22;6448;48.916;8.990;2024-02-21T03:26:23;12.80;56.60
12769;DHT22;6448;48.916;8.990;2024-02-21T03:27:23;12.80;56.70
12769;DHT22;6448;48.916;8.990;2024-02-21T03:28:25;12.90;56.70
12769;DHT22;6448;48.916;8.990;2024-02-21T03:29:26;12.80;56.60
12769;DHT22;6448;48.916;8.990;2024-02-21T03:30:28;12.80;56.60
12769;DHT22;6448;48.916;8.990;2024-02-21T03:31:29;12.80;56.60
12769;DHT22;6448;48.916;8.990;2024-02-21T03:32:30;12.80;56.60
12769;DHT22;6448;48.916;8.990;2024-02-21T03:33:31;12.80;56.60
12769;DHT22;6448;48.916;8.990;2024-02-21T03:34:33;12.90;56.60
12769;DHT22;6448;48.916;8.990;2024-02-21T03:35:33;12.80;56.60
12769;DHT22;6448;48.916;8.990;2024-02-21T03:36:36;12.80;56.60
12769;DHT22;6448;48.916;8.990;2024-02-21T03:37:36;12.80;56.60
12769;DHT22;6448;48.916;8.990;2024-02-21T03:38:38;12.80;56.60
12769;DHT22;6448;48.916;8.990;2024-02-21T03:39:39;12.80;56.60
12769;DHT22;6448;48.916;8.990;2024-02-21T03:40:41;12.80;56.60
12769;DHT22;6448;48.916;8.990;2024-02-21T03:41:43;12.80;56.60
12769;DHT22;6448;48.916;8.990;2024-02-21T03:42:44;12.80;56.60
12769;DHT22;6448;48.916;8.990;2024-02-21T03:43:47;12.80;56.70
12769;DHT22;6448;48.916;8.990;2024-02-21T03:44:48;12.80;56.60
12769;DHT22;6448;48.916;8.990;2024-02-21T03:45:50;12.80;56.70
12769;DHT22;6448;48.916;8.990;2024-02-21T03:46:51;12.80;56.70
12769;DHT22;6448;48.916;8.990;2024-02-21T03:47:52;12.80;56.70
12769;DHT22;6448;48.916;8.990;2024-02-21T03:48:53;12.90;56.70
12769;DHT22;6448;48.916;8.990;2024-02-21T03:49:55;12.80;56.70
12769;DHT22;6448;48.916;8.990;2024-02-21T03:50:56;13.00;56.80
12769;DHT22;6448;48.916;8.990;2024-02-21T03:51:57;12.80;56.70
12769;DHT22;6448;48.916;8.990;2024-02-21T03:52:58;12.80;56.70
12769;DHT22;6448;48.916;8.990;2024-02-21T03:54:00;12.80;56.70
12769;DHT22;6448;48.916;8.990;2024-02-21T03:55:01;12.80;56.60
12769;DHT22;6448;48.916;8.990;2024-02-21T03:56:05;12.80;56.60
12769;DHT22;6448;48.916;8.990;2024-02-21T03:57:06;12.80;56.60
12769;DHT22;6448;48.916;8.990;2024-02-21T03:58:08;12.70;56.50
12769;DHT22;6448;48.916;8.990;2024-02-21T03:59:08;12.80;56.50
12769;DHT22;6448;48.916;8.990;2024-02-21T04:00:11;12.80;56.60
12769;DHT22;6448;48.916;8.990;2024-02-21T04:01:12;12.70;56.50
12769;DHT22;6448;48.916;8.990;2024-02-21T04:02:13;12.80;56.60
12769;DHT22;6448;48.916;8.990;2024-02-21T04:03:15;12.80;56.60
12769;DHT22;6448;48.916;8.990;2024-02-21T04:04:16;12.80;56.60
12769;DHT22;6448;48.916;8.990;2024-02-21T04:05:18;12.80;56.70
12769;DHT22;6448;48.916;8.990;2024-02-21T04:06:19;12.70;56.70
12769;DHT22;6448;48.916;8.990;2024-02-21T04:07:20;12.70;56.70
12769;DHT22;6448;48.916;8.990;2024-02-21T04:08:22;12.70;56.60
12769;DHT22;6448;48.916;8.990;2024-02-21T04:09:24;12.70;56.60
12769;DHT22;6448;48.916;8.990;2024-02-21T04:10:24;12.80;56.60
12769;DHT22;6448;48.916;8.990;2024-02-21T04:11:27;12.70;56.50
12769;DHT22;6448;48.916;8.990;2024-02-21T04:12:28;12.70;56.50
12769;DHT22;6448;48.916;8.990;2024-02-21T04:13:30;12.70;56.40
12769;DHT22;6448;48.916;8.990;2024-02-21T04:14:31;12.70;56.20
12769;DHT22;6448;48.916;8.990;2024-02-21T04:15:32;12.70;56.10
12769;DHT22;6448;48.916;8.990;2024-02-21T04:16:34;12.70;56.10
12769;DHT22;6448;48.916;8.990;2024-02-21T04:17:36;12.70;56.10
12769;DHT22;6448;48.916;8.990;2024-02-21T04:18:37;12.60;56.00
12769;DHT22;6448;48.916;8.990;2024-02-21T04:19:38;12.60;56.10
12769;DHT22;6448;48.916;8.990;2024-02-21T04:20:39;12.60;56.10
12769;DHT22;6448;48.916;8.990;2024-02-21T04:21:40;12.60;56.10
12769;DHT22;6448;48.916;8.990;2024-02-21T04:22:43;12.70;56.20
12769;DHT22;6448;48.916;8.990;2024-02-21T04:23:44;12.60;56.20
12769;DHT22;6448;48.916;8.990;2024-02-21T04:24:44;12.60;56.20
12769;DHT22;6448;48.916;8.990;2024-02-21T04:25:46;12.60;56.20
12769;DHT22;6448;48.916;8.990;2024-02-21T04:26:49;12.60;56.20
12769;DHT22;6448;48.916;8.990;2024-02-21T04:27:51;12.80;56.40
12769;DHT22;6448;48.916;8.990;2024-02-21T04:28:52;12.60;56.30
12769;DHT22;6448;48.916;8.990;2024-02-21T04:29:53;12.60;56.30
12769;DHT22;6448;48.916;8.990;2024-02-21T04:30:55;12.60;56.40
12769;DHT22;6448;48.916;8.990;2024-02-21T04:31:55;12.60;56.40
12769;DHT22;6448;48.916;8.990;2024-02-21T04:32:57;12.60;56.30
12769;DHT22;6448;48.916;8.990;2024-02-21T04:33:58;12.60;56.30
12769;DHT22;6448;48.916;8.990;2024-02-21T04:34:59;12.50;56.30
12769;DHT22;6448;48.916;8.990;2024-02-21T04:36:00;12.60;56.20
12769;DHT22;6448;48.916;8.990;2024-02-21T04:37:03;12.60;56.20
12769;DHT22;6448;48.916;8.990;2024-02-21T04:38:04;12.60;56.20
12769;DHT22;6448;48.916;8.990;2024-02-21T04:39:05;12.60;56.20
12769;DHT22;6448;48.916;8.990;2024-02-21T04:40:08;12.50;56.10
12769;DHT22;6448;48.916;8.990;2024-02-21T04:41:09;12.60;56.20
12769;DHT22;6448;48.916;8.990;2024-02-21T04:42:12;12.60;56.30
12769;DHT22;6448;48.916;8.990;2024-02-21T04:43:13;12.50;56.30
12769;DHT22;6448;48.916;8.990;2024-02-21T04:44:15;12.50;56.30
12769;DHT22;6448;48.916;8.990;2024-02-21T04:45:16;12.50;56.40
12769;DHT22;6448;48.916;8.990;2024-02-21T04:46:18;12.60;56.40
12769;DHT22;6448;48.916;8.990;2024-02-21T04:47:19;12.60;56.40
12769;DHT22;6448;48.916;8.990;2024-02-21T04:48:21;12.60;56.30
12769;DHT22;6448;48.916;8.990;2024-02-21T04:49:22;12.50;56.30
12769;DHT22;6448;48.916;8.990;2024-02-21T04:50:23;12.50;56.30
12769;DHT22;6448;48.916;8.990;2024-02-21T04:51:24;12.50;56.40
12769;DHT22;6448;48.916;8.990;2024-02-21T04:52:26;12.50;56.40
12769;DHT22;6448;48.916;8.990;2024-02-21T04:53:27;12.50;56.50
12769;DHT22;6448;48.916;8.990;2024-02-21T04:54:28;12.50;56.50
12769;DHT22;6448;48.916;8.990;2024-02-21T04:55:29;12.50;56.50
12769;DHT22;6448;48.916;8.990;2024-02-21T04:56:31;12.50;56.60
12769;DHT22;6448;48.916;8.990;2024-02-21T04:57:33;12.50;56.50
12769;DHT22;6448;48.916;8.990;2024-02-21T04:58:37;12.50;56.50
12769;DHT22;6448;48.916;8.990;2024-02-21T04:59:38;12.50;56.50
12769;DHT22;6448;48.916;8.990;2024-02-21T05:00:40;12.50;56.50
12769;DHT22;6448;48.916;8.990;2024-02-21T05:01:41;12.60;56.50
12769;DHT22;6448;48.916;8.990;2024-02-21T05:02:42;12.50;56.50
12769;DHT22;6448;48.916;8.990;2024-02-21T05:03:43;12.40;56.30
12769;DHT22;6448;48.916;8.990;2024-02-21T05:04:45;12.40;56.30
12769;DHT22;6448;48.916;8.990;2024-02-21T05:05:46;12.40;56.30
12769;DHT22;6448;48.916;8.990;2024-02-21T05:06:47;12.50;56.40
12769;DHT22;6448;48.916;8.990;2024-02-21T05:07:48;12.40;56.50
12769;DHT22;6448;48.916;8.990;2024-02-21T05:08:50;12.40;56.40
12769;DHT22;6448;48.916;8.990;2024-02-21T05:09:51;12.40;56.30
12769;DHT22;6448;48.916;8.990;2024-02-21T05:10:52;12.40;56.30
12769;DHT22;6448;48.916;8.990;2024-02-21T05:11:54;12.40;56.30
12769;DHT22;6448;48.916;8.990;2024-02-21T05:12:57;12.40;56.20
12769;DHT22;6448;48.916;8.990;2024-02-21T05:13:58;12.40;56.30
12769;DHT22;6448;48.916;8.990;2024-02-21T05:14:59;12.40;56.20
12769;DHT22;6448;48.916;8.990;2024-02-21T05:16:00;12.40;56.30
12769;DHT22;6448;48.916;8.990;2024-02-21T05:17:03;12.40;56.20
12769;DHT22;6448;48.916;8.990;2024-02-21T05:18:04;12.40;56.30
12769;DHT22;6448;48.916;8.990;2024-02-21T05:19:06;12.40;56.40
12769;DHT22;6448;48.916;8.990;2024-02-21T05:20:07;12.40;56.40
12769;DHT22;6448;48.916;8.990;2024-02-21T05:21:10;12.40;56.30
12769;DHT22;6448;48.916;8.990;2024-02-21T05:22:11;12.40;56.30
12769;DHT22;6448;48.916;8.990;2024-02-21T05:23:13;12.40;56.20
12769;DHT22;6448;48.916;8.990;2024-02-21T05:24:13;12.30;56.20
12769;DHT22;6448;48.916;8.990;2024-02-21T05:25:15;12.40;56.20
12769;DHT22;6448;48.916;8.990;2024-02-21T05:26:20;12.40;56.20
12769;DHT22;6448;48.916;8.990;2024-02-21T05:27:23;12.30;56.20
12769;DHT22;6448;48.916;8.990;2024-02-21T05:28:25;12.30;56.20
12769;DHT22;6448;48.916;8.990;2024-02-21T05:29:27;12.40;56.20
12769;DHT22;6448;48.916;8.990;2024-02-21T05:30:28;12.30;56.20
12769;DHT22;6448;48.916;8.990;2024-02-21T05:31:54;12.30;56.20
12769;DHT22;6448;48.916;8.990;2024-02-21T05:32:55;12.40;56.20
12769;DHT22;6448;48.916;8.990;2024-02-21T05:33:56;12.30;56.30
12769;DHT22;6448;48.916;8.990;2024-02-21T05:34:57;12.30;56.30
12769;DHT22;6448;48.916;8.990;2024-02-21T05:36:00;12.30;56.30
12769;DHT22;6448;48.916;8.990;2024-02-21T05:37:01;12.30;56.30
12769;DHT22;6448;48.916;8.990;2024-02-21T05:38:03;12.30;56.30
12769;DHT22;6448;48.916;8.990;2024-02-21T05:39:07;12.30;56.30
12769;DHT22;6448;48.916;8.990;2024-02-21T05:40:10;12.30;56.20
12769;DHT22;6448;48.916;8.990;2024-02-21T05:41:12;12.30;56.30
12769;DHT22;6448;48.916;8.990;2024-02-21T05:42:14;12.30;56.20
12769;DHT22;6448;48.916;8.990;2024-02-21T05:43:15;12.30;56.20
12769;DHT22;6448;48.916;8.990;2024-02-21T05:44:18;12.30;56.20
12769;DHT22;6448;48.916;8.990;2024-02-21T05:45:19;12.30;56.20
12769;DHT22;6448;48.916;8.990;2024-02-21T05:46:21;12.50;56.20
12769;DHT22;6448;48.916;8.990;2024-02-21T05:47:22;12.30;56.20
12769;DHT22;6448;48.916;8.990;2024-02-21T05:48:24;12.30;56.20
12769;DHT22;6448;48.916;8.990;2024-02-21T05:49:24;12.30;56.30
12769;DHT22;6448;48.916;8.990;2024-02-21T05:50:26;12.30;56.50
12769;DHT22;6448;48.916;8.990;2024-02-21T05:51:32;12.30;56.30
12769;DHT22;6448;48.916;8.990;2024-02-21T05:52:34;12.30;56.30
12769;DHT22;6448;48.916;8.990;2024-02-21T05:53:34;12.30;56.60
12769;DHT22;6448;48.916;8.990;2024-02-21T05:54:40;12.30;56.30
12769;DHT22;6448;48.916;8.990;2024-02-21T05:55:41;12.30;56.30
12769;DHT22;6448;48.916;8.990;2024-02-21T05:56:46;12.30;56.30
12769;DHT22;6448;48.916;8.990;2024-02-21T05:57:47;12.20;56.20
12769;DHT22;6448;48.916;8.990;2024-02-21T05:58:49;12.30;56.30
12769;DHT22;6448;48.916;8.990;2024-02-21T05:59:51;12.20;56.20
12769;DHT22;6448;48.916;8.990;2024-02-21T06:00:53;12.30;56.20
12769;DHT22;6448;48.916;8.990;2024-02-21T06:01:57;12.20;56.10
12769;DHT22;6448;48.916;8.990;2024-02-21T06:02:59;12.20;56.00
12769;DHT22;6448;48.916;8.990;2024-02-21T06:04:00;12.20;56.00
12769;DHT22;6448;48.916;8.990;2024-02-21T06:05:02;12.20;56.00
12769;DHT22;6448;48.916;8.990;2024-02-21T06:06:03;12.20;55.90
12769;DHT22;6448;48.916;8.990;2024-02-21T06:07:05;12.20;56.00
12769;DHT22;6448;48.916;8.990;2024-02-21T06:08:06;12.20;55.90
12769;DHT22;6448;48.916;8.990;2024-02-21T06:09:08;12.20;56.00
12769;DHT22;6448;48.916;8.990;2024-02-21T06:10:09;12.20;56.00
12769;DHT22;6448;48.916;8.990;2024-02-21T06:11:11;12.20;56.00
12769;DHT22;6448;48.916;8.990;2024-02-21T06:12:12;12.20;56.00
12769;DHT22;6448;48.916;8.990;2024-02-21T06:13:13;12.20;56.00
12769;DHT22;6448;48.916;8.990;2024-02-21T06:14:14;12.20;56.00
12769;DHT22;6448;48.916;8.990;2024-02-21T06:15:17;12.20;56.00
12769;DHT22;6448;48.916;8.990;2024-02-21T06:16:18;12.20;56.00
12769;DHT22;6448;48.916;8.990;2024-02-21T06:17:20;12.20;55.90
12769;DHT22;6448;48.916;8.990;2024-02-21T06:18:21;12.20;55.90
12769;DHT22;6448;48.916;8.990;2024-02-21T06:19:21;12.10;55.90
12769;DHT22;6448;48.916;8.990;2024-02-21T06:20:23;12.20;56.00
12769;DHT22;6448;48.916;8.990;2024-02-21T06:21:29;12.10;55.90
12769;DHT22;6448;48.916;8.990;2024-02-21T06:22:30;12.10;55.90
12769;DHT22;6448;48.916;8.990;2024-02-21T06:23:31;12.10;55.90
12769;DHT22;6448;48.916;8.990;2024-02-21T06:24:33;12.10;55.90
12769;DHT22;6448;48.916;8.990;2024-02-21T06:25:34;12.10;55.90
12769;DHT22;6448;48.916;8.990;2024-02-21T06:26:35;12.10;55.90
12769;DHT22;6448;48.916;8.990;2024-02-21T06:27:36;12.10;55.90
12769;DHT22;6448;48.916;8.990;2024-02-21T06:28:38;12.10;55.90
12769;DHT22;6448;48.916;8.990;2024-02-21T06:29:38;12.20;56.00
12769;DHT22;6448;48.916;8.990;2024-02-21T06:30:41;12.00;55.90
12769;DHT22;6448;48.916;8.990;2024-02-21T06:31:42;12.10;55.90
12769;DHT22;6448;48.916;8.990;2024-02-21T06:32:44;12.10;55.90
12769;DHT22;6448;48.916;8.990;2024-02-21T06:33:45;12.10;55.80
12769;DHT22;6448;48.916;8.990;2024-02-21T06:34:46;12.10;55.80
12769;DHT22;6448;48.916;8.990;2024-02-21T06:35:47;12.10;55.80